Hollywood Hills, South Carolina
Current Conditions -  °F | °C
As of 3:53 AM on Sunday 26 Oct 2014 (Local Time) from KCUB Reporting Station
Clear Clear  
Wind Chill: 50°   Ceiling: Unl
Heat Index: 50°   Visibility: 10mi
Dew Point: 47°   Wind: 0mph
Humidity: 89%   Direction: NA
Pressure: 29.92"   Gusts: NA
Location:  34.1179°N, 81.0612°W
Report Text: KCUB 260753Z AUTO 00000KT 10SM CLR 10/08 A2992 RMK AO2 SLP130 T01000083
Loading
Personal Weather Stations






























Interactive Weather Map
Tropical Storm Tracking
New forecast layout! Learn more

10-Day Weather Forecast

Advertisements
Track Severe Weather on mobile